Time;durP1;ratioP1;P1;durP2;ratioP2;P2;SDS_P1;SDS_P2;PMS_P1;PMS_P2;Temp;Humidity;BMP_temperature;BMP_pressure;BME280_temperature;BME280_humidity;BME280_pressure;Samples;Min_cycle;Max_cycle;Signal;HPM_P1;HPM_P2
2022/12/14 00:00:07;;;;;;;15.07;7.33;;;;;;;;;;4987381;28;20283;-80
2022/12/14 00:02:33;;;;;;;16.07;8.20;;;;;;;;;;4987361;28;20796;-79
2022/12/14 00:04:59;;;;;;;14.47;7.17;;;;;;;;;;4989376;28;20285;-80
2022/12/14 00:07:25;;;;;;;13.80;7.20;;;;;;;;;;4997582;28;20282;-79
2022/12/14 00:09:51;;;;;;;13.40;7.13;;;;;;;;;;4985878;28;20285;-79
2022/12/14 00:12:20;;;;;;;15.00;7.23;;;;;;;;;;4987041;28;20296;-79
2022/12/14 00:14:46;;;;;;;14.63;7.07;;;;;;;;;;5002816;28;20299;-78
2022/12/14 00:17:12;;;;;;;15.47;7.90;;;;;;;;;;4991578;28;20303;-81
2022/12/14 00:19:38;;;;;;;17.10;8.00;;;;;;;;;;4989090;28;20361;-79
2022/12/14 00:22:04;;;;;;;13.63;7.17;;;;;;;;;;4999564;28;20380;-77
2022/12/14 00:24:30;;;;;;;16.03;7.67;;;;;;;;;;4986642;28;20282;-77
2022/12/14 00:26:56;;;;;;;12.53;6.77;;;;;;;;;;5002231;28;20285;-79
2022/12/14 00:29:22;;;;;;;16.53;7.50;;;;;;;;;;5000042;28;20277;-79
2022/12/14 00:31:49;;;;;;;12.50;6.97;;;;;;;;;;4987864;28;20282;-79
2022/12/14 00:34:16;;;;;;;17.37;7.20;;;;;;;;;;4985787;28;20393;-78
2022/12/14 00:36:42;;;;;;;13.63;7.10;;;;;;;;;;4986393;28;20313;-80
2022/12/14 00:39:08;;;;;;;14.33;8.03;;;;;;;;;;4987809;28;20309;-81
2022/12/14 00:41:34;;;;;;;14.87;7.27;;;;;;;;;;5002020;28;20297;-78
2022/12/14 00:44:00;;;;;;;12.23;6.73;;;;;;;;;;4988241;28;20784;-79
2022/12/14 00:46:28;;;;;;;13.40;7.03;;;;;;;;;;4999585;28;20285;-79
2022/12/14 00:48:56;;;;;;;13.40;6.67;;;;;;;;;;5001907;28;20289;-79
2022/12/14 00:51:22;;;;;;;13.90;7.00;;;;;;;;;;5005848;28;20297;-78
2022/12/14 00:53:48;;;;;;;14.13;7.43;;;;;;;;;;5002891;28;20293;-78
2022/12/14 00:56:15;;;;;;;15.47;7.37;;;;;;;;;;4999746;28;20300;-79
2022/12/14 00:58:41;;;;;;;12.50;6.20;;;;;;;;;;4988352;28;20281;-80
2022/12/14 01:01:11;;;;;;;13.77;7.07;;;;;;;;;;4986666;28;20313;-78
2022/12/14 01:03:37;;;;;;;14.47;7.47;;;;;;;;;;5000174;28;20277;-79
2022/12/14 01:06:03;;;;;;;10.83;6.57;;;;;;;;;;4986093;28;20280;-79
2022/12/14 01:08:35;;;;;;;11.37;6.50;;;;;;;;;;4983847;28;22013;-79
2022/12/14 01:11:05;;;;;;;14.63;7.53;;;;;;;;;;5000737;28;20274;-78
2022/12/14 01:13:31;;;;;;;14.27;6.47;;;;;;;;;;4997275;28;20273;-77
2022/12/14 01:16:01;;;;;;;14.50;7.10;;;;;;;;;;4994581;28;20289;-76
2022/12/14 01:18:27;;;;;;;12.67;6.73;;;;;;;;;;4997028;28;20630;-80
2022/12/14 01:20:56;;;;;;;14.50;7.03;;;;;;;;;;4996257;28;20682;-80
2022/12/14 01:23:22;;;;;;;14.77;7.57;;;;;;;;;;4996371;28;20270;-79
2022/12/14 01:25:48;;;;;;;11.97;6.60;;;;;;;;;;5009866;28;20344;-79
2022/12/14 01:28:14;;;;;;;12.53;6.70;;;;;;;;;;5000611;28;20352;-79
2022/12/14 01:30:40;;;;;;;13.97;6.60;;;;;;;;;;4995624;28;20809;-77
2022/12/14 01:33:06;;;;;;;12.57;6.60;;;;;;;;;;4992290;28;20369;-78
2022/12/14 01:35:33;;;;;;;13.83;6.80;;;;;;;;;;5012425;28;20285;-77
2022/12/14 01:37:59;;;;;;;13.87;6.20;;;;;;;;;;4997429;28;20332;-80
2022/12/14 01:40:25;;;;;;;15.53;7.07;;;;;;;;;;4999560;28;20265;-80
2022/12/14 01:42:51;;;;;;;11.67;6.30;;;;;;;;;;4998921;28;20265;-77
2022/12/14 01:45:20;;;;;;;12.87;7.27;;;;;;;;;;4996577;28;20250;-80
2022/12/14 01:47:49;;;;;;;12.20;6.63;;;;;;;;;;4992537;28;20340;-80
2022/12/14 01:50:35;;;;;;;12.63;6.57;;;;;;;;;;4997263;28;20308;-80
2022/12/14 01:53:04;;;;;;;13.20;6.73;;;;;;;;;;5006025;28;20277;-79
2022/12/14 01:55:30;;;;;;;15.60;6.93;;;;;;;;;;5009673;28;20286;-78
2022/12/14 01:58:02;;;;;;;12.57;6.10;;;;;;;;;;5000414;28;20288;-78
2022/12/14 02:00:31;;;;;;;13.48;6.72;;;;;;;;;;4996010;28;20598;-79
2022/12/14 02:03:17;;;;;;;14.13;6.93;;;;;;;;;;4999159;28;20042;-81
2022/12/14 02:05:46;;;;;;;12.40;6.30;;;;;;;;;;5017288;28;20721;-81
2022/12/14 02:08:15;;;;;;;16.80;6.73;;;;;;;;;;4995335;28;20603;-80
2022/12/14 02:10:41;;;;;;;13.17;5.83;;;;;;;;;;4994979;28;20270;-80
2022/12/14 02:13:13;;;;;;;13.67;6.33;;;;;;;;;;4995870;28;20280;-80
2022/12/14 02:15:40;;;;;;;8.88;5.45;;;;;;;;;;4998709;28;20610;-80
2022/12/14 02:18:07;;;;;;;14.67;6.27;;;;;;;;;;5006769;28;20029;-80
2022/12/14 02:20:44;;;;;;;14.17;6.37;;;;;;;;;;4996116;28;20289;-80
2022/12/14 02:23:37;;;;;;;14.27;6.67;;;;;;;;;;4994836;28;20269;-81
2022/12/14 02:26:17;;;;;;;12.02;6.65;;;;;;;;;;4995591;28;20273;-79
2022/12/14 02:28:43;;;;;;;14.90;6.50;;;;;;;;;;4993254;28;20018;-80
2022/12/14 02:31:15;;;;;;;11.60;6.60;;;;;;;;;;5001813;28;20289;-81
2022/12/14 02:33:54;;;;;;;11.33;6.03;;;;;;;;;;4984295;28;20344;-80
2022/12/14 02:36:41;;;;;;;10.07;5.63;;;;;;;;;;4994725;28;20372;-79
2022/12/14 02:39:22;;;;;;;14.57;6.77;;;;;;;;;;4994836;28;20714;-80
2022/12/14 02:42:06;;;;;;;11.40;5.70;;;;;;;;;;4989674;28;20254;-80
2022/12/14 02:44:59;;;;;;;12.60;6.20;;;;;;;;;;5004855;28;20726;-80
2022/12/14 02:47:45;;;;;;;12.20;6.28;;;;;;;;;;4965072;28;20352;-80
2022/12/14 02:50:29;;;;;;;10.67;6.03;;;;;;;;;;4950234;28;20061;-79
2022/12/14 02:53:14;;;;;;;12.10;5.80;;;;;;;;;;4995167;28;20270;-79
2022/12/14 02:55:43;;;;;;;12.97;6.13;;;;;;;;;;5008244;28;20761;-80
2022/12/14 02:58:20;;;;;;;10.80;6.07;;;;;;;;;;5012187;28;20335;-80
2022/12/14 03:00:47;;;;;;;11.17;6.17;;;;;;;;;;4996187;28;20324;-80
2022/12/14 03:03:13;;;;;;;9.80;5.77;;;;;;;;;;4991250;28;20253;-81
2022/12/14 03:05:39;;;;;;;12.37;5.70;;;;;;;;;;5001005;28;20265;-80
2022/12/14 03:08:08;;;;;;;11.83;6.30;;;;;;;;;;4998287;28;20273;-79
2022/12/14 03:10:34;;;;;;;11.47;6.03;;;;;;;;;;5002045;28;20265;-80
2022/12/14 03:13:06;;;;;;;12.10;6.10;;;;;;;;;;4997918;28;20265;-80
2022/12/14 03:15:34;;;;;;;11.07;6.38;;;;;;;;;;4997866;28;20301;-81
2022/12/14 03:18:01;;;;;;;12.17;6.27;;;;;;;;;;4996711;28;20030;-80
2022/12/14 03:20:30;;;;;;;10.23;5.20;;;;;;;;;;4997395;28;20285;-79
2022/12/14 03:22:58;;;;;;;11.73;5.77;;;;;;;;;;4998073;28;20591;-80
2022/12/14 03:25:32;;;;;;;9.13;5.20;;;;;;;;;;4997873;28;20285;-79
2022/12/14 03:28:01;;;;;;;12.03;5.90;;;;;;;;;;4997835;28;20273;-79
2022/12/14 03:30:29;;;;;;;13.13;5.90;;;;;;;;;;4997064;28;20293;-80
2022/12/14 03:32:58;;;;;;;9.70;5.27;;;;;;;;;;4997532;28;20277;-80
2022/12/14 03:35:33;;;;;;;11.57;5.03;;;;;;;;;;4998007;28;20762;-80
2022/12/14 03:38:07;;;;;;;10.30;5.63;;;;;;;;;;4997125;28;20710;-80
2022/12/14 03:40:39;;;;;;;11.20;6.03;;;;;;;;;;4997712;28;20576;-78
2022/12/14 03:43:15;;;;;;;9.35;5.05;;;;;;;;;;5013317;28;20261;-80
2022/12/14 03:45:49;;;;;;;13.97;6.10;;;;;;;;;;5015766;28;20034;-79
2022/12/14 03:48:22;;;;;;;10.37;5.57;;;;;;;;;;4997997;28;20726;-80
2022/12/14 03:51:02;;;;;;;10.67;6.17;;;;;;;;;;5001604;28;20270;-79
2022/12/14 03:53:37;;;;;;;12.07;5.87;;;;;;;;;;4994047;28;20264;-79
2022/12/14 03:56:11;;;;;;;12.10;6.27;;;;;;;;;;5002861;28;20283;-78
2022/12/14 03:58:46;;;;;;;11.73;5.37;;;;;;;;;;4997688;28;20285;-80
2022/12/14 04:01:12;;;;;;;9.73;5.13;;;;;;;;;;4994239;28;20261;-78
2022/12/14 04:03:57;;;;;;;9.77;5.80;;;;;;;;;;4997019;28;20887;-79
2022/12/14 04:06:26;;;;;;;13.90;5.63;;;;;;;;;;5012729;28;20268;-80
2022/12/14 04:09:10;;;;;;;12.47;5.60;;;;;;;;;;4986597;28;20904;-80
2022/12/14 04:20:02;;;;;;;9.77;5.50;;;;;;;;;;4997764;28;20580;-79
2022/12/14 04:22:30;;;;;;;10.83;5.40;;;;;;;;;;4996521;28;20305;-80
2022/12/14 04:27:50;;;;;;;10.97;5.73;;;;;;;;;;4990964;28;20747;-79
2022/12/14 04:30:17;;;;;;;10.93;6.07;;;;;;;;;;4996161;28;20289;-79
2022/12/14 04:32:45;;;;;;;8.83;5.50;;;;;;;;;;4996211;28;20026;-80
2022/12/14 04:35:20;;;;;;;9.03;5.17;;;;;;;;;;4996166;28;20281;-80
2022/12/14 04:37:54;;;;;;;9.80;5.60;;;;;;;;;;5007705;28;20305;-81
2022/12/14 04:40:26;;;;;;;9.50;6.07;;;;;;;;;;4997262;28;20328;-79
2022/12/14 04:42:55;;;;;;;9.45;4.70;;;;;;;;;;4995502;28;20787;-80
2022/12/14 04:45:29;;;;;;;12.43;6.43;;;;;;;;;;4995954;28;20031;-80
2022/12/14 04:48:07;;;;;;;10.10;5.53;;;;;;;;;;4997124;28;20262;-79
2022/12/14 04:50:35;;;;;;;10.47;5.37;;;;;;;;;;4996167;28;20274;-80
2022/12/14 04:53:09;;;;;;;9.10;5.00;;;;;;;;;;5004616;28;20281;-81
2022/12/14 04:55:53;;;;;;;14.47;5.70;;;;;;;;;;4996864;28;20278;-80
2022/12/14 04:58:24;;;;;;;11.63;5.73;;;;;;;;;;5000316;28;20278;-80
2022/12/14 05:00:57;;;;;;;11.70;5.20;;;;;;;;;;4996765;28;20272;-79
2022/12/14 05:03:46;;;;;;;10.88;5.47;;;;;;;;;;4995747;28;20357;-80
2022/12/14 05:06:18;;;;;;;12.43;6.90;;;;;;;;;;4995328;28;20084;-80
2022/12/14 05:09:03;;;;;;;9.13;5.30;;;;;;;;;;4995771;28;20285;-80
2022/12/14 05:11:31;;;;;;;13.63;5.67;;;;;;;;;;4995842;28;20053;-79
2022/12/14 05:13:57;;;;;;;12.07;5.23;;;;;;;;;;5000204;28;20755;-79
2022/12/14 05:16:23;;;;;;;14.33;6.00;;;;;;;;;;4984848;28;20286;-79
2022/12/14 05:18:50;;;;;;;10.17;5.77;;;;;;;;;;4999488;28;20280;-79
2022/12/14 05:24:02;;;;;;;12.43;6.13;;;;;;;;;;4986638;28;20309;-79
2022/12/14 05:26:29;;;;;;;9.57;5.83;;;;;;;;;;4988837;28;20461;-79
2022/12/14 05:28:55;;;;;;;10.67;5.50;;;;;;;;;;4984640;28;20277;-80
2022/12/14 05:31:21;;;;;;;13.03;6.07;;;;;;;;;;4985293;28;20285;-79
2022/12/14 05:33:50;;;;;;;9.70;5.70;;;;;;;;;;4985088;28;20365;-78
2022/12/14 05:36:16;;;;;;;10.93;5.83;;;;;;;;;;4985953;28;20289;-80
2022/12/14 05:38:42;;;;;;;9.47;4.93;;;;;;;;;;5002456;28;20265;-78
2022/12/14 05:41:08;;;;;;;11.97;7.00;;;;;;;;;;4987792;28;20332;-79
2022/12/14 05:43:34;;;;;;;11.87;6.63;;;;;;;;;;4990490;28;20274;-78
2022/12/14 05:46:01;;;;;;;12.47;6.67;;;;;;;;;;4985370;28;20279;-79
2022/12/14 05:48:27;;;;;;;13.17;6.33;;;;;;;;;;5000081;28;20747;-79
2022/12/14 05:50:53;;;;;;;12.50;5.90;;;;;;;;;;4997457;28;22025;-80
2022/12/14 05:53:21;;;;;;;15.90;8.10;;;;;;;;;;4989881;28;20353;-78
2022/12/14 05:55:51;;;;;;;13.93;6.70;;;;;;;;;;4999890;28;20758;-77
2022/12/14 05:58:17;;;;;;;12.77;6.17;;;;;;;;;;4985549;28;20285;-79
2022/12/14 06:00:43;;;;;;;10.20;5.37;;;;;;;;;;5003477;28;20273;-77
2022/12/14 06:03:09;;;;;;;14.20;6.83;;;;;;;;;;5000332;28;20401;-77
2022/12/14 06:05:36;;;;;;;11.97;6.30;;;;;;;;;;4991680;28;20301;-79
2022/12/14 06:08:02;;;;;;;9.80;5.83;;;;;;;;;;4990650;28;20328;-78
2022/12/14 06:10:28;;;;;;;13.67;5.90;;;;;;;;;;4987114;28;20319;-79
2022/12/14 06:12:54;;;;;;;13.63;7.70;;;;;;;;;;5002599;28;20337;-80
2022/12/14 06:15:20;;;;;;;11.07;6.20;;;;;;;;;;5001369;28;20285;-77
2022/12/14 06:17:46;;;;;;;12.37;5.73;;;;;;;;;;5005905;28;20336;-79
2022/12/14 06:20:13;;;;;;;12.33;6.17;;;;;;;;;;4999101;28;20289;-78
2022/12/14 06:22:39;;;;;;;9.37;5.40;;;;;;;;;;5001343;28;20295;-79
2022/12/14 06:25:06;;;;;;;11.17;6.10;;;;;;;;;;4984175;28;20278;-78
2022/12/14 06:27:32;;;;;;;13.30;6.03;;;;;;;;;;4983972;28;20348;-78
2022/12/14 06:29:58;;;;;;;11.90;6.50;;;;;;;;;;4984920;28;20269;-79
2022/12/14 06:32:25;;;;;;;13.73;5.83;;;;;;;;;;4985052;28;20305;-78
2022/12/14 06:34:53;;;;;;;11.60;5.97;;;;;;;;;;4985654;28;20304;-79
2022/12/14 06:37:19;;;;;;;14.07;6.67;;;;;;;;;;4987797;28;20289;-78
2022/12/14 06:39:45;;;;;;;11.33;6.10;;;;;;;;;;4986777;28;20307;-80
2022/12/14 06:42:14;;;;;;;13.27;7.33;;;;;;;;;;4995804;28;20270;-79
2022/12/14 06:44:40;;;;;;;12.53;5.93;;;;;;;;;;4987033;28;20694;-78
2022/12/14 06:47:06;;;;;;;13.27;6.33;;;;;;;;;;5000306;28;20339;-78
2022/12/14 06:49:34;;;;;;;10.83;5.87;;;;;;;;;;4982575;28;20274;-81
2022/12/14 06:52:00;;;;;;;14.43;6.87;;;;;;;;;;4996360;28;20285;-78
2022/12/14 06:54:26;;;;;;;11.50;6.30;;;;;;;;;;5000028;28;20301;-78
2022/12/14 06:56:52;;;;;;;9.63;5.67;;;;;;;;;;4987126;28;20281;-80
2022/12/14 06:59:21;;;;;;;11.73;6.43;;;;;;;;;;4984012;28;20277;-77
2022/12/14 07:01:47;;;;;;;11.73;6.10;;;;;;;;;;5000511;28;20526;-79
2022/12/14 07:04:15;;;;;;;12.47;5.80;;;;;;;;;;5000820;28;20351;-78
2022/12/14 07:06:41;;;;;;;12.43;6.47;;;;;;;;;;4986341;28;20289;-79
2022/12/14 07:09:08;;;;;;;10.33;6.00;;;;;;;;;;4984668;28;20289;-79
2022/12/14 07:11:34;;;;;;;9.43;5.97;;;;;;;;;;4986789;28;20285;-77
2022/12/14 07:14:04;;;;;;;13.23;6.83;;;;;;;;;;4983522;28;20310;-79
2022/12/14 07:16:30;;;;;;;11.43;5.53;;;;;;;;;;4997863;28;20276;-79
2022/12/14 07:18:57;;;;;;;11.20;6.30;;;;;;;;;;4994392;28;20257;-80
2022/12/14 07:21:23;;;;;;;19.63;8.90;;;;;;;;;;4995014;28;20749;-80
2022/12/14 07:23:53;;;;;;;12.73;7.13;;;;;;;;;;4993894;28;20833;-78
2022/12/14 07:26:22;;;;;;;13.40;7.40;;;;;;;;;;4995962;28;20277;-81
2022/12/14 07:28:48;;;;;;;12.83;6.43;;;;;;;;;;4993375;28;20281;-80
2022/12/14 07:31:16;;;;;;;13.77;6.77;;;;;;;;;;4999905;28;20348;-79
2022/12/14 07:33:42;;;;;;;14.53;7.60;;;;;;;;;;4999774;28;20304;-79
2022/12/14 07:36:10;;;;;;;11.80;6.37;;;;;;;;;;4997843;28;20286;-78
2022/12/14 07:38:36;;;;;;;9.27;5.20;;;;;;;;;;4994890;28;20594;-80
2022/12/14 07:41:11;;;;;;;14.20;6.97;;;;;;;;;;5005379;28;20365;-79
2022/12/14 07:43:41;;;;;;;13.70;7.90;;;;;;;;;;5003567;28;20391;-79
2022/12/14 07:46:09;;;;;;;12.73;7.17;;;;;;;;;;4998978;28;20792;-79
2022/12/14 07:48:35;;;;;;;24.03;6.97;;;;;;;;;;4996703;28;20344;-79
2022/12/14 07:51:08;;;;;;;11.60;6.20;;;;;;;;;;4998487;28;20254;-79
2022/12/14 07:53:35;;;;;;;11.53;6.57;;;;;;;;;;4998165;28;20269;-80
2022/12/14 07:56:06;;;;;;;11.10;6.37;;;;;;;;;;4997553;28;20314;-79
2022/12/14 07:58:32;;;;;;;13.67;6.73;;;;;;;;;;4995464;28;20262;-79
2022/12/14 08:01:11;;;;;;;15.03;7.13;;;;;;;;;;4996419;28;20266;-80
2022/12/14 08:03:37;;;;;;;11.27;6.40;;;;;;;;;;4999763;28;20336;-80
2022/12/14 08:06:04;;;;;;;15.83;7.10;;;;;;;;;;4999439;28;20754;-80
2022/12/14 08:08:31;;;;;;;11.77;6.07;;;;;;;;;;4998677;28;20270;-80
2022/12/14 08:10:57;;;;;;;13.73;6.70;;;;;;;;;;5006628;28;20288;-80
2022/12/14 08:13:23;;;;;;;16.50;9.40;;;;;;;;;;4999165;28;20273;-80
2022/12/14 08:15:49;;;;;;;16.13;7.93;;;;;;;;;;4997812;28;20363;-80
2022/12/14 08:18:15;;;;;;;52.87;20.37;;;;;;;;;;4997880;28;20265;-81
2022/12/14 08:20:41;;;;;;;17.17;8.53;;;;;;;;;;5012202;28;20258;-80
2022/12/14 08:23:07;;;;;;;12.87;6.57;;;;;;;;;;5000320;28;20272;-80
2022/12/14 08:25:33;;;;;;;22.30;9.93;;;;;;;;;;5004834;28;20274;-78
2022/12/14 08:28:02;;;;;;;15.17;8.00;;;;;;;;;;5000698;28;20733;-79
2022/12/14 08:30:32;;;;;;;16.23;7.70;;;;;;;;;;4997484;28;20706;-80
2022/12/14 08:32:58;;;;;;;18.20;7.07;;;;;;;;;;4995356;28;20270;-80
2022/12/14 08:35:27;;;;;;;12.90;7.03;;;;;;;;;;4999766;28;20299;-79
2022/12/14 08:37:55;;;;;;;13.43;7.63;;;;;;;;;;5004748;28;20273;-78
2022/12/14 08:40:21;;;;;;;13.90;6.63;;;;;;;;;;5000731;28;20268;-79
2022/12/14 08:42:49;;;;;;;13.67;7.23;;;;;;;;;;4997702;28;20881;-80
2022/12/14 08:45:15;;;;;;;17.53;8.30;;;;;;;;;;4997273;28;20274;-80
2022/12/14 08:47:41;;;;;;;16.43;8.03;;;;;;;;;;4997563;28;20262;-80
2022/12/14 08:50:08;;;;;;;17.33;10.60;;;;;;;;;;4997488;28;20288;-80
2022/12/14 08:52:34;;;;;;;15.70;7.53;;;;;;;;;;4998819;28;20338;-80
2022/12/14 08:55:00;;;;;;;12.23;7.03;;;;;;;;;;4996768;28;20289;-80
2022/12/14 08:57:28;;;;;;;13.67;8.30;;;;;;;;;;4989442;28;20293;-78
2022/12/14 08:59:54;;;;;;;16.00;7.87;;;;;;;;;;4998040;28;20582;-80
2022/12/14 09:02:20;;;;;;;16.17;7.27;;;;;;;;;;5004109;28;20710;-80
2022/12/14 09:04:49;;;;;;;15.40;7.97;;;;;;;;;;4996383;28;20288;-79
2022/12/14 09:07:15;;;;;;;13.67;6.60;;;;;;;;;;4989861;28;20270;-80
2022/12/14 09:09:41;;;;;;;16.57;7.87;;;;;;;;;;5011144;28;20357;-80
2022/12/14 09:12:07;;;;;;;14.23;7.30;;;;;;;;;;4995991;28;20309;-79
2022/12/14 09:14:36;;;;;;;13.53;7.80;;;;;;;;;;4995452;28;20289;-80
2022/12/14 09:17:04;;;;;;;14.17;7.40;;;;;;;;;;4994613;28;20269;-79
2022/12/14 09:19:30;;;;;;;13.03;7.40;;;;;;;;;;5005017;28;20274;-79
2022/12/14 09:21:56;;;;;;;14.23;7.47;;;;;;;;;;5009164;28;20328;-79
2022/12/14 09:24:23;;;;;;;13.37;7.07;;;;;;;;;;4995155;28;20269;-79
2022/12/14 09:26:49;;;;;;;13.10;8.23;;;;;;;;;;5001778;28;20267;-79
2022/12/14 09:29:16;;;;;;;13.13;7.60;;;;;;;;;;4996338;28;20273;-79
2022/12/14 09:31:43;;;;;;;13.13;7.90;;;;;;;;;;4995247;28;20277;-80
2022/12/14 09:34:09;;;;;;;13.33;8.33;;;;;;;;;;4999117;28;20889;-80
2022/12/14 09:36:35;;;;;;;19.37;8.40;;;;;;;;;;4991788;28;20259;-80
2022/12/14 09:39:02;;;;;;;14.53;7.53;;;;;;;;;;5006575;28;20344;-79
2022/12/14 09:41:31;;;;;;;17.90;8.40;;;;;;;;;;4989619;28;20261;-80
2022/12/14 09:44:18;;;;;;;15.57;8.73;;;;;;;;;;4997384;28;20262;-80
2022/12/14 09:46:56;;;;;;;14.77;8.37;;;;;;;;;;5010586;28;20353;-79
2022/12/14 09:49:27;;;;;;;15.47;8.30;;;;;;;;;;5004304;28;20353;-81
2022/12/14 09:51:54;;;;;;;14.57;7.83;;;;;;;;;;4999247;28;20397;-81
2022/12/14 09:54:25;;;;;;;20.97;8.10;;;;;;;;;;5007700;28;20289;-81
2022/12/14 09:56:52;;;;;;;13.10;7.30;;;;;;;;;;5026586;28;20338;-81
2022/12/14 09:59:19;;;;;;;14.33;8.07;;;;;;;;;;5024156;28;20321;-81
2022/12/14 10:01:48;;;;;;;18.67;10.50;;;;;;;;;;5024261;28;20732;-80
2022/12/14 10:04:29;;;;;;;16.67;8.70;;;;;;;;;;5034716;28;20314;-79
2022/12/14 10:06:55;;;;;;;14.40;7.77;;;;;;;;;;5019595;28;20670;-79
2022/12/14 10:09:33;;;;;;;15.10;7.80;;;;;;;;;;5034579;28;20326;-80
2022/12/14 10:11:59;;;;;;;14.33;7.97;;;;;;;;;;5020930;28;20049;-81
2022/12/14 10:14:29;;;;;;;15.73;9.00;;;;;;;;;;5009006;28;20745;-79
2022/12/14 10:16:55;;;;;;;25.90;9.47;;;;;;;;;;5017750;28;20041;-81
2022/12/14 10:19:26;;;;;;;17.07;8.87;;;;;;;;;;5038350;28;20325;-78
2022/12/14 10:21:52;;;;;;;19.70;11.10;;;;;;;;;;5015196;28;20286;-80
2022/12/14 10:24:24;;;;;;;20.20;10.07;;;;;;;;;;5028019;28;20752;-80
2022/12/14 10:26:52;;;;;;;19.33;10.20;;;;;;;;;;5006666;28;20033;-78
2022/12/14 10:29:20;;;;;;;15.93;9.70;;;;;;;;;;4997704;28;20084;-77
2022/12/14 10:32:07;;;;;;;19.73;9.07;;;;;;;;;;5000016;28;20257;-79
2022/12/14 10:34:34;;;;;;;19.30;9.70;;;;;;;;;;5006240;28;20309;-78
2022/12/14 10:37:12;;;;;;;27.07;13.57;;;;;;;;;;5010826;28;20269;-78
2022/12/14 10:39:39;;;;;;;25.23;12.87;;;;;;;;;;5000090;28;20276;-80
2022/12/14 10:42:05;;;;;;;17.93;10.47;;;;;;;;;;4997868;28;20312;-77
2022/12/14 10:44:37;;;;;;;18.87;10.67;;;;;;;;;;4996706;28;20273;-79
2022/12/14 10:47:21;;;;;;;15.48;9.73;;;;;;;;;;5004886;28;20270;-79
2022/12/14 10:49:54;;;;;;;22.57;12.27;;;;;;;;;;4997357;28;20034;-78
2022/12/14 10:52:22;;;;;;;20.20;12.43;;;;;;;;;;4998603;28;20332;-78
2022/12/14 10:54:55;;;;;;;22.73;10.80;;;;;;;;;;4996105;28;20085;-79
2022/12/14 10:57:21;;;;;;;;;;;;;;;;;;4993635;28;20261;-79
2022/12/14 10:59:47;;;;;;;17.30;9.87;;;;;;;;;;4997475;28;19917;-80
2022/12/14 11:02:18;;;;;;;17.40;9.83;;;;;;;;;;4997903;28;20038;-79
2022/12/14 11:04:47;;;;;;;17.57;9.97;;;;;;;;;;4994954;28;20331;-79
2022/12/14 11:07:14;;;;;;;12.87;9.13;;;;;;;;;;4994835;28;20301;-79
2022/12/14 11:09:41;;;;;;;18.27;9.80;;;;;;;;;;5009819;28;20292;-79
2022/12/14 11:12:13;;;;;;;23.33;11.20;;;;;;;;;;4994843;28;20591;-80
2022/12/14 11:14:51;;;;;;;18.23;10.43;;;;;;;;;;4993709;28;20348;-79
2022/12/14 11:17:35;;;;;;;19.67;10.83;;;;;;;;;;5008304;28;20023;-80
2022/12/14 11:20:21;;;;;;;19.00;9.47;;;;;;;;;;5004884;28;20317;-79
2022/12/14 11:22:50;;;;;;;24.20;12.63;;;;;;;;;;5007683;28;20280;-79
2022/12/14 11:25:27;;;;;;;21.80;12.47;;;;;;;;;;4991118;28;20349;-78
2022/12/14 11:27:53;;;;;;;22.87;12.47;;;;;;;;;;4995439;28;20594;-78
2022/12/14 11:30:19;;;;;;;19.67;12.00;;;;;;;;;;4990244;28;20277;-78
2022/12/14 11:32:49;;;;;;;20.03;11.03;;;;;;;;;;4988485;28;20278;-78
2022/12/14 11:35:16;;;;;;;17.97;10.73;;;;;;;;;;5001632;28;20285;-77
2022/12/14 11:37:42;;;;;;;22.90;11.73;;;;;;;;;;5003480;28;20270;-77
2022/12/14 11:40:18;;;;;;;39.87;24.23;;;;;;;;;;5000338;28;20340;-77
2022/12/14 11:42:48;;;;;;;29.80;17.27;;;;;;;;;;5007814;28;20305;-78
2022/12/14 11:45:19;;;;;;;30.13;17.93;;;;;;;;;;4990268;28;20614;-79
2022/12/14 11:47:45;;;;;;;36.30;16.43;;;;;;;;;;5007368;28;20288;-77
2022/12/14 11:50:26;;;;;;;24.47;11.70;;;;;;;;;;4990217;28;20284;-78
2022/12/14 11:53:03;;;;;;;18.73;11.93;;;;;;;;;;4991841;28;20274;-78
2022/12/14 11:55:29;;;;;;;20.43;11.93;;;;;;;;;;5004907;28;20286;-78
2022/12/14 11:57:57;;;;;;;20.80;12.80;;;;;;;;;;5007988;28;20289;-77
2022/12/14 12:00:28;;;;;;;20.60;11.30;;;;;;;;;;5007508;28;20316;-78
2022/12/14 12:03:01;;;;;;;26.53;14.47;;;;;;;;;;5002972;28;20270;-77
2022/12/14 12:05:28;;;;;;;21.77;11.70;;;;;;;;;;4993821;28;20717;-78
2022/12/14 12:07:58;;;;;;;23.43;13.43;;;;;;;;;;4990976;28;20280;-77
2022/12/14 12:10:24;;;;;;;20.97;13.20;;;;;;;;;;4991755;28;20337;-77
2022/12/14 12:12:52;;;;;;;23.00;13.37;;;;;;;;;;5006532;28;20274;-77
2022/12/14 12:15:21;;;;;;;21.17;11.50;;;;;;;;;;4987700;28;20320;-79
2022/12/14 12:17:50;;;;;;;16.30;10.40;;;;;;;;;;5003193;28;20784;-78
2022/12/14 12:20:16;;;;;;;16.60;10.27;;;;;;;;;;5001945;28;20266;-77
2022/12/14 12:22:43;;;;;;;19.23;11.03;;;;;;;;;;5004884;28;20277;-78
2022/12/14 12:25:14;;;;;;;17.87;11.40;;;;;;;;;;4993994;28;20276;-78
2022/12/14 12:27:40;;;;;;;20.67;11.87;;;;;;;;;;5006369;28;20273;-78
2022/12/14 12:30:10;;;;;;;21.60;12.87;;;;;;;;;;4993836;28;20286;-78
2022/12/14 12:32:39;;;;;;;22.60;13.03;;;;;;;;;;4986819;28;20387;-78
2022/12/14 12:35:16;;;;;;;22.77;13.17;;;;;;;;;;5003189;28;20388;-77
2022/12/14 12:37:45;;;;;;;21.83;12.73;;;;;;;;;;5004152;28;20274;-77
2022/12/14 12:40:20;;;;;;;23.77;13.43;;;;;;;;;;5000483;28;20278;-77
2022/12/14 12:42:49;;;;;;;22.30;12.57;;;;;;;;;;5002480;28;20309;-77
2022/12/14 12:45:19;;;;;;;19.47;11.83;;;;;;;;;;5006156;28;20277;-77
2022/12/14 12:47:49;;;;;;;18.00;11.70;;;;;;;;;;5006448;28;20352;-77
2022/12/14 12:50:17;;;;;;;22.40;12.80;;;;;;;;;;5003615;28;20285;-77
2022/12/14 12:53:10;;;;;;;25.17;15.97;;;;;;;;;;4988113;28;20312;-78
2022/12/14 12:55:45;;;;;;;19.15;12.30;;;;;;;;;;4987383;28;20049;-77
2022/12/14 12:58:18;;;;;;;24.97;13.03;;;;;;;;;;5002481;28;20045;-77
2022/12/14 13:00:50;;;;;;;23.35;12.45;;;;;;;;;;5002199;28;20019;-78
2022/12/14 13:03:36;;;;;;;19.02;11.50;;;;;;;;;;4988558;28;20077;-77
2022/12/14 13:06:13;;;;;;;19.47;11.63;;;;;;;;;;4986355;28;20038;-77
2022/12/14 13:08:43;;;;;;;20.53;11.83;;;;;;;;;;5001475;28;20054;-77
2022/12/14 13:11:14;;;;;;;19.70;12.27;;;;;;;;;;5007624;28;20049;-78
2022/12/14 13:13:42;;;;;;;20.57;12.10;;;;;;;;;;4988004;28;20038;-77
2022/12/14 13:16:22;;;;;;;22.73;11.90;;;;;;;;;;5004347;28;20097;-78
2022/12/14 13:18:50;;;;;;;20.07;12.37;;;;;;;;;;4997003;28;20027;-79
2022/12/14 13:21:29;;;;;;;21.33;12.43;;;;;;;;;;4997406;28;20026;-78
2022/12/14 13:23:55;;;;;;;24.47;14.20;;;;;;;;;;4997835;28;20022;-79
2022/12/14 13:26:24;;;;;;;22.60;12.10;;;;;;;;;;4996523;28;20069;-79
2022/12/14 13:29:09;;;;;;;25.47;12.17;;;;;;;;;;4997256;28;20262;-79
2022/12/14 13:31:59;;;;;;;22.33;11.53;;;;;;;;;;4996630;28;20262;-78
2022/12/14 13:34:28;;;;;;;21.57;12.60;;;;;;;;;;4993888;28;20296;-78
2022/12/14 13:37:24;;;;;;;21.10;13.07;;;;;;;;;;4997030;28;20042;-79
2022/12/14 13:40:02;;;;;;;23.17;11.80;;;;;;;;;;4992170;28;20038;-78
2022/12/14 13:42:41;;;;;;;20.97;11.83;;;;;;;;;;4996828;28;20257;-78
2022/12/14 13:45:16;;;;;;;18.97;12.00;;;;;;;;;;5006378;28;20447;-78
2022/12/14 13:47:43;;;;;;;18.13;11.90;;;;;;;;;;4996370;28;20050;-78
2022/12/14 13:50:20;;;;;;;20.97;14.07;;;;;;;;;;4997113;28;20443;-79
2022/12/14 13:52:47;;;;;;;23.90;13.47;;;;;;;;;;4999636;28;20034;-78
2022/12/14 13:55:34;;;;;;;21.17;12.73;;;;;;;;;;4998008;28;20498;-79
2022/12/14 13:58:06;;;;;;;19.90;12.63;;;;;;;;;;4996617;28;20367;-78
2022/12/14 14:00:47;;;;;;;24.98;14.82;;;;;;;;;;4996672;28;20270;-79
2022/12/14 14:03:31;;;;;;;29.67;18.63;;;;;;;;;;4995592;28;20022;-78
2022/12/14 14:06:00;;;;;;;25.80;14.67;;;;;;;;;;4996634;28;20280;-78
2022/12/14 14:08:33;;;;;;;24.20;13.13;;;;;;;;;;4995638;28;20313;-78
2022/12/14 14:11:22;;;;;;;20.58;11.32;;;;;;;;;;4996187;28;20265;-79
2022/12/14 14:13:49;;;;;;;20.17;12.60;;;;;;;;;;4995519;28;20022;-79
2022/12/14 14:16:21;;;;;;;18.33;12.00;;;;;;;;;;4996105;28;20309;-79
2022/12/14 14:18:55;;;;;;;25.13;14.03;;;;;;;;;;4999829;28;20344;-79
2022/12/14 14:21:21;;;;;;;22.90;12.83;;;;;;;;;;5006536;28;20709;-80
2022/12/14 14:23:57;;;;;;;21.83;12.53;;;;;;;;;;5012330;28;20296;-79
2022/12/14 14:26:24;;;;;;;21.43;12.83;;;;;;;;;;4986160;28;20042;-79
2022/12/14 14:28:52;;;;;;;22.70;12.90;;;;;;;;;;5012645;28;20270;-77
2022/12/14 14:31:18;;;;;;;19.30;12.07;;;;;;;;;;5004734;28;20697;-78
2022/12/14 14:33:46;;;;;;;20.60;12.93;;;;;;;;;;4995399;28;20752;-79
2022/12/14 14:36:25;;;;;;;21.37;13.20;;;;;;;;;;4995060;28;20313;-79
2022/12/14 14:38:51;;;;;;;78.07;35.17;;;;;;;;;;4991899;28;20262;-78
2022/12/14 14:41:25;;;;;;;57.00;28.37;;;;;;;;;;5000949;28;20249;-79
2022/12/14 14:43:57;;;;;;;43.33;24.23;;;;;;;;;;5000646;28;20295;-78
2022/12/14 14:46:37;;;;;;;28.58;15.00;;;;;;;;;;5000246;28;20261;-79
2022/12/14 14:49:04;;;;;;;24.70;13.87;;;;;;;;;;5009925;28;20375;-78
2022/12/14 14:51:33;;;;;;;24.93;14.70;;;;;;;;;;4998410;28;20281;-79
2022/12/14 14:54:18;;;;;;;23.90;14.97;;;;;;;;;;4996551;28;20269;-77
2022/12/14 14:56:45;;;;;;;24.87;14.53;;;;;;;;;;4993682;28;20281;-78
2022/12/14 14:59:14;;;;;;;29.00;15.47;;;;;;;;;;4995326;28;20284;-80